createdAt,value
2023-01-29T00:04:34.652Z,4.57
2023-01-29T00:09:38.455Z,4.10
2023-01-29T00:14:43.247Z,3.83
2023-01-29T00:24:50.003Z,4.00
2023-01-29T00:30:08.740Z,4.10
2023-01-29T00:35:12.878Z,3.75
2023-01-29T00:40:16.883Z,5.13
2023-01-29T00:45:21.954Z,4.72
2023-01-29T00:55:28.845Z,4.30
2023-01-29T01:00:33.838Z,4.70
2023-01-29T01:05:39.366Z,4.93
2023-01-29T01:10:42.969Z,3.72
2023-01-29T01:15:47.868Z,3.33
2023-01-29T01:25:56.336Z,4.82
2023-01-29T01:31:10.524Z,4.82
2023-01-29T01:36:14.056Z,5.35
2023-01-29T01:41:19.899Z,5.70
2023-01-29T01:46:25.855Z,5.80
2023-01-29T01:51:32.291Z,5.13
2023-01-29T01:56:42.040Z,4.63
2023-01-29T02:01:51.698Z,4.50
2023-01-29T02:07:13.420Z,3.80
2023-01-29T02:12:18.716Z,4.22
2023-01-29T02:17:23.953Z,3.67
2023-01-29T02:22:55.310Z,3.30
2023-01-29T02:28:34.275Z,3.58
2023-01-29T02:33:56.880Z,3.03
2023-01-29T02:39:11.059Z,3.03
2023-01-29T02:44:23.479Z,2.90
2023-01-29T02:49:34.956Z,3.15
2023-01-29T02:54:46.440Z,3.03
2023-01-29T02:59:57.095Z,2.88
2023-01-29T03:05:04.573Z,2.97
2023-01-29T03:10:14.340Z,3.13
2023-01-29T03:15:25.437Z,2.50
2023-01-29T03:20:41.676Z,2.67
2023-01-29T03:26:03.931Z,2.55
2023-01-29T03:31:29.383Z,2.72
2023-01-29T03:36:40.134Z,2.78
2023-01-29T03:41:50.457Z,2.72
2023-01-29T03:46:59.209Z,2.75
2023-01-29T03:52:08.579Z,2.47
2023-01-29T03:57:16.968Z,2.30
2023-01-29T04:02:28.239Z,2.60
2023-01-29T04:07:33.868Z,2.25
2023-01-29T04:12:42.865Z,3.28
2023-01-29T04:17:53.087Z,2.53
2023-01-29T04:22:56.592Z,2.85
2023-01-29T04:28:09.024Z,3.03
2023-01-29T04:33:23.458Z,2.65
2023-01-29T04:38:40.974Z,2.88
2023-01-29T04:43:57.301Z,2.75
2023-01-29T04:49:14.724Z,3.13
2023-01-29T04:54:27.407Z,2.78
2023-01-29T04:59:35.420Z,2.97
2023-01-29T05:04:42.724Z,3.08
2023-01-29T05:09:48.022Z,3.00
2023-01-29T05:14:53.366Z,2.70
2023-01-29T05:19:58.927Z,2.78
2023-01-29T05:25:02.346Z,2.45
2023-01-29T05:30:08.486Z,2.80
2023-01-29T05:35:14.228Z,2.60
2023-01-29T05:40:18.219Z,2.20
2023-01-29T05:45:22.354Z,2.60
2023-01-29T05:50:28.834Z,2.10
2023-01-29T05:55:32.292Z,2.25
2023-01-29T06:00:35.947Z,2.30
2023-01-29T06:05:41.274Z,2.30
2023-01-29T06:10:44.845Z,2.25
2023-01-29T06:15:48.258Z,2.20
2023-01-29T06:20:53.392Z,2.60
2023-01-29T06:26:01.483Z,2.20
2023-01-29T06:36:31.913Z,2.65
2023-01-29T06:41:36.051Z,2.50
2023-01-29T06:46:39.649Z,2.50
2023-01-29T06:51:44.913Z,2.50
2023-01-29T06:56:48.491Z,2.75
2023-01-29T07:01:52.201Z,2.63
2023-01-29T07:06:57.327Z,2.33
2023-01-29T07:12:00.921Z,2.83
2023-01-29T07:17:04.336Z,2.55
2023-01-29T07:22:09.394Z,2.22
2023-01-29T07:27:12.998Z,2.58
2023-01-29T07:32:16.637Z,3.13
2023-01-29T07:37:21.661Z,2.38
2023-01-29T07:42:25.109Z,2.45
2023-01-29T07:47:28.781Z,2.47
2023-01-29T07:52:34.949Z,3.00
2023-01-29T07:57:38.607Z,2.60
2023-01-29T08:02:42.439Z,3.50
2023-01-29T08:08:00.869Z,2.67
2023-01-29T08:13:09.484Z,2.75
2023-01-29T08:18:13.542Z,2.47
2023-01-29T08:23:18.452Z,2.47
2023-01-29T08:28:22.113Z,2.53
2023-01-29T08:33:38.719Z,2.38
2023-01-29T08:38:44.420Z,2.40
2023-01-29T08:43:47.919Z,2.75
2023-01-29T08:48:51.511Z,2.55
2023-01-29T08:53:56.431Z,2.38
2023-01-29T09:04:03.152Z,1.90
2023-01-29T09:09:08.357Z,2.40
2023-01-29T09:14:12.638Z,2.13
2023-01-29T09:19:16.241Z,2.40
2023-01-29T09:24:21.237Z,1.80
2023-01-29T09:34:28.077Z,2.00
2023-01-29T09:39:33.107Z,1.92
2023-01-29T09:44:51.097Z,1.90
2023-01-29T09:49:58.418Z,2.10
2023-01-29T09:55:08.540Z,1.83
2023-01-29T10:00:17.308Z,2.03
2023-01-29T10:05:37.112Z,2.00
2023-01-29T10:10:51.264Z,2.00
2023-01-29T10:16:18.772Z,2.20
2023-01-29T10:21:39.231Z,2.08
2023-01-29T10:26:44.331Z,1.65
2023-01-29T10:31:53.036Z,2.25
2023-01-29T10:36:57.839Z,1.98
2023-01-29T10:42:16.738Z,2.03
2023-01-29T10:47:40.828Z,1.80
2023-01-29T10:53:07.419Z,1.75
2023-01-29T10:58:22.484Z,2.15
2023-01-29T11:08:39.551Z,2.10
2023-01-29T11:13:50.147Z,1.70
2023-01-29T11:18:56.828Z,1.52
2023-01-29T11:24:09.008Z,1.80
2023-01-29T11:29:48.507Z,1.75
2023-01-29T11:34:58.969Z,2.28
2023-01-29T11:40:02.642Z,1.73
2023-01-29T11:45:27.076Z,2.00
2023-01-29T11:50:33.315Z,2.30
2023-01-29T11:55:50.239Z,2.08
2023-01-29T12:00:57.093Z,2.33
2023-01-29T12:06:04.348Z,2.03
2023-01-29T12:11:13.985Z,2.58
2023-01-29T12:16:28.126Z,1.98
2023-01-29T12:21:37.366Z,2.37
2023-01-29T12:26:48.533Z,2.60
2023-01-29T12:32:00.686Z,2.22
2023-01-29T12:37:12.621Z,2.25
2023-01-29T12:42:20.981Z,2.63
2023-01-29T12:47:35.106Z,2.22
2023-01-29T12:52:43.149Z,3.00
2023-01-29T12:57:52.271Z,2.63
2023-01-29T13:03:05.492Z,2.70
2023-01-29T13:08:12.270Z,2.58
2023-01-29T13:13:31.902Z,2.30
2023-01-29T13:18:43.024Z,2.40
2023-01-29T13:23:49.871Z,2.38
2023-01-29T13:28:54.155Z,2.67
2023-01-29T13:34:08.898Z,2.55
2023-01-29T13:39:22.409Z,2.30
2023-01-29T13:44:29.557Z,2.50
2023-01-29T13:49:39.232Z,3.05
2023-01-29T13:54:50.885Z,2.30
2023-01-29T13:59:56.757Z,2.60
2023-01-29T14:05:47.885Z,2.85
2023-01-29T14:11:37.162Z,2.80
2023-01-29T14:16:40.669Z,3.13
2023-01-29T14:21:51.824Z,3.22
2023-01-29T14:26:57.815Z,3.15
2023-01-29T14:32:10.940Z,3.28
2023-01-29T14:37:30.431Z,3.65
2023-01-29T14:42:37.611Z,3.17
2023-01-29T14:48:01.262Z,3.40
2023-01-29T14:53:12.327Z,3.13
2023-01-29T14:58:20.055Z,2.78
2023-01-29T15:03:33.960Z,3.13
2023-01-29T15:08:42.668Z,3.38
2023-01-29T15:13:53.673Z,3.58
2023-01-29T15:19:08.684Z,3.40
2023-01-29T15:29:26.174Z,3.45
2023-01-29T15:34:29.772Z,3.55
2023-01-29T15:39:33.499Z,3.78
2023-01-29T15:44:45.439Z,4.15
2023-01-29T15:49:49.491Z,4.47
2023-01-29T15:54:53.302Z,3.70
2023-01-29T16:00:00.571Z,4.68
2023-01-29T16:05:05.064Z,4.63
2023-01-29T16:10:16.228Z,4.45
2023-01-29T16:15:30.007Z,4.25
2023-01-29T16:20:38.697Z,4.22
2023-01-29T16:25:42.184Z,4.82
2023-01-29T16:30:47.300Z,5.18
2023-01-29T16:35:53.373Z,4.70
2023-01-29T16:41:08.908Z,4.40
2023-01-29T16:46:20.769Z,4.75
2023-01-29T16:51:27.327Z,4.80
2023-01-29T16:56:34.255Z,5.07
2023-01-29T17:01:39.288Z,4.68
2023-01-29T17:06:45.901Z,4.32
2023-01-29T17:11:50.742Z,5.22
2023-01-29T17:22:04.788Z,4.70
2023-01-29T17:27:08.430Z,4.57
2023-01-29T17:32:13.733Z,4.47
2023-01-29T17:37:18.335Z,4.00
2023-01-29T17:42:21.941Z,3.95
2023-01-29T17:47:27.389Z,4.18
2023-01-29T17:52:32.308Z,3.85
2023-01-29T17:57:36.115Z,3.67
2023-01-29T18:02:40.868Z,4.50
2023-01-29T18:07:47.021Z,3.80
2023-01-29T18:12:50.354Z,3.90
2023-01-29T18:17:55.481Z,3.85
2023-01-29T18:22:58.872Z,3.88
2023-01-29T18:28:02.625Z,3.72
2023-01-29T18:33:07.389Z,3.50
2023-01-29T18:38:11.007Z,4.00
2023-01-29T18:43:15.831Z,3.60
2023-01-29T18:53:23.954Z,3.53
2023-01-29T18:58:36.553Z,3.80
2023-01-29T19:03:42.423Z,3.30
2023-01-29T19:08:46.000Z,3.45
2023-01-29T19:13:49.959Z,3.65
2023-01-29T19:18:56.404Z,3.60
2023-01-29T19:23:59.945Z,3.60
2023-01-29T19:29:03.805Z,3.00
2023-01-29T19:34:09.461Z,4.43
2023-01-29T19:39:15.029Z,3.35
2023-01-29T19:44:18.694Z,3.08
2023-01-29T19:49:23.627Z,3.47
2023-01-29T19:54:28.154Z,3.30
2023-01-29T19:59:31.705Z,2.97
2023-01-29T20:04:36.718Z,3.53
2023-01-29T20:09:40.318Z,3.75
2023-01-29T20:14:48.937Z,3.63
2023-01-29T20:19:53.949Z,3.80
2023-01-29T20:24:57.397Z,3.80
2023-01-29T20:30:00.983Z,4.22
2023-01-29T20:35:06.565Z,4.32
2023-01-29T20:40:11.780Z,5.25
2023-01-29T20:45:16.667Z,4.97
2023-01-29T20:50:21.741Z,5.20
2023-01-29T20:55:25.218Z,5.10
2023-01-29T21:00:28.981Z,5.53
2023-01-29T21:05:33.897Z,6.05
2023-01-29T21:15:40.659Z,5.38
2023-01-29T21:20:45.928Z,6.13
2023-01-29T21:25:49.855Z,6.15
2023-01-29T21:31:03.221Z,5.40
2023-01-29T21:36:10.310Z,5.82
2023-01-29T21:41:13.923Z,6.18
2023-01-29T21:46:17.442Z,5.75
2023-01-29T21:51:23.012Z,6.85
2023-01-29T21:56:26.592Z,6.13
2023-01-29T22:01:37.498Z,6.35
2023-01-29T22:06:43.727Z,5.75
2023-01-29T22:11:47.434Z,5.80
2023-01-29T22:16:50.744Z,5.63
2023-01-29T22:21:55.789Z,5.80
2023-01-29T22:26:59.364Z,5.43
2023-01-29T22:32:03.010Z,5.60
2023-01-29T22:37:08.011Z,5.30
2023-01-29T22:42:11.612Z,5.97
2023-01-29T22:47:15.374Z,5.97
2023-01-29T22:52:22.533Z,5.82
2023-01-29T22:57:26.097Z,6.15
2023-01-29T23:02:29.505Z,5.95
2023-01-29T23:07:34.513Z,5.63
2023-01-29T23:12:37.922Z,6.20
2023-01-29T23:17:41.247Z,6.00
2023-01-29T23:22:47.550Z,5.15
2023-01-29T23:32:54.273Z,5.78
2023-01-29T23:37:59.256Z,5.78
2023-01-29T23:43:02.651Z,5.18
2023-01-29T23:48:06.883Z,5.90
2023-01-29T23:53:11.633Z,5.38
2023-01-29T23:58:15.350Z,5.35
